createdAt,value
2022-11-10T00:00:10.544Z,9.07
2022-11-10T00:03:02.372Z,9.98
2022-11-10T00:05:47.778Z,9.68
2022-11-10T00:08:33.683Z,10.07
2022-11-10T00:11:20.469Z,9.75
2022-11-10T00:14:25.320Z,9.93
2022-11-10T00:17:12.127Z,8.57
2022-11-10T00:19:57.876Z,9.65
2022-11-10T00:22:43.341Z,8.77
2022-11-10T00:25:29.112Z,10.20
2022-11-10T00:28:14.530Z,9.13
2022-11-10T00:31:06.463Z,9.48
2022-11-10T00:33:52.100Z,8.05
2022-11-10T00:36:38.020Z,10.50
2022-11-10T00:39:23.701Z,9.48
2022-11-10T00:42:09.611Z,9.90
2022-11-10T00:44:56.222Z,8.27
2022-11-10T00:47:41.534Z,9.23
2022-11-10T00:50:27.243Z,10.18
2022-11-10T00:53:13.292Z,9.10
2022-11-10T00:55:59.000Z,8.38
2022-11-10T00:58:44.672Z,10.10
2022-11-10T01:01:30.323Z,10.05
2022-11-10T01:04:15.935Z,9.52
2022-11-10T01:07:01.727Z,9.93
2022-11-10T01:09:47.223Z,9.40
2022-11-10T01:12:32.835Z,10.50
2022-11-10T01:15:21.757Z,10.23
2022-11-10T01:18:11.804Z,11.20
2022-11-10T01:20:57.227Z,9.70
2022-11-10T01:23:42.731Z,9.77
2022-11-10T01:26:29.312Z,11.00
2022-11-10T01:29:15.028Z,9.65
2022-11-10T01:32:00.513Z,9.07
2022-11-10T01:34:47.357Z,11.48
2022-11-10T01:37:33.178Z,9.90
2022-11-10T01:40:19.074Z,9.55
2022-11-10T01:43:05.777Z,9.65
2022-11-10T01:45:55.463Z,9.38
2022-11-10T01:48:55.003Z,9.85
2022-11-10T01:52:01.225Z,9.38
2022-11-10T01:54:50.029Z,9.73
2022-11-10T01:57:39.357Z,11.57
2022-11-10T02:00:25.222Z,9.95
2022-11-10T02:03:23.578Z,9.73
2022-11-10T02:06:11.100Z,9.13
2022-11-10T02:08:58.755Z,10.32
2022-11-10T02:11:47.576Z,9.07
2022-11-10T02:14:33.347Z,8.80
2022-11-10T02:17:19.004Z,10.13
2022-11-10T02:20:10.221Z,9.35
2022-11-10T02:22:56.196Z,10.20
2022-11-10T02:25:42.087Z,9.35
2022-11-10T02:28:27.711Z,8.35
2022-11-10T02:31:13.629Z,9.32
2022-11-10T02:33:59.448Z,9.98
2022-11-10T02:36:44.771Z,10.32
2022-11-10T02:39:30.553Z,9.93
2022-11-10T02:42:15.928Z,9.32
2022-11-10T02:45:01.708Z,9.15
2022-11-10T02:47:47.231Z,10.38
2022-11-10T02:50:32.836Z,9.05
2022-11-10T02:53:18.686Z,11.70
2022-11-10T02:56:04.783Z,9.68
2022-11-10T02:58:50.266Z,9.85
2022-11-10T03:01:35.690Z,9.27
2022-11-10T03:04:21.249Z,10.10
2022-11-10T03:07:06.823Z,10.30
2022-11-10T03:09:52.411Z,10.32
2022-11-10T03:12:38.583Z,9.05
2022-11-10T03:15:25.134Z,9.95
2022-11-10T03:18:10.496Z,10.80
2022-11-10T03:20:57.119Z,10.05
2022-11-10T03:23:42.973Z,11.05
2022-11-10T03:26:28.494Z,9.30
2022-11-10T03:29:14.230Z,10.20
2022-11-10T03:31:59.971Z,9.48
2022-11-10T03:34:45.357Z,9.52
2022-11-10T03:37:31.296Z,10.40
2022-11-10T03:40:16.534Z,11.52
2022-11-10T03:43:01.799Z,9.35
2022-11-10T03:45:47.088Z,10.10
2022-11-10T03:48:35.260Z,9.60
2022-11-10T03:51:22.332Z,10.80
2022-11-10T03:54:07.632Z,9.60
2022-11-10T03:56:53.285Z,9.50
2022-11-10T03:59:38.675Z,9.88
2022-11-10T04:02:23.962Z,10.18
2022-11-10T04:05:28.754Z,8.00
2022-11-10T04:08:35.749Z,9.90
2022-11-10T04:11:40.499Z,9.05
2022-11-10T04:14:44.754Z,11.27
2022-11-10T04:17:31.476Z,10.20
2022-11-10T04:20:17.569Z,11.13
2022-11-10T04:23:21.609Z,9.85
2022-11-10T04:26:28.689Z,9.68
2022-11-10T04:29:16.542Z,9.80
2022-11-10T04:32:02.127Z,11.32
2022-11-10T04:34:47.834Z,9.73
2022-11-10T04:37:33.276Z,10.55
2022-11-10T04:40:19.011Z,11.85
2022-11-10T04:43:04.667Z,8.25
2022-11-10T04:45:50.551Z,10.27
2022-11-10T04:48:36.704Z,10.48
2022-11-10T04:51:24.054Z,9.73
2022-11-10T04:54:12.739Z,10.60
2022-11-10T04:56:58.632Z,10.13
2022-11-10T04:59:44.158Z,10.40
2022-11-10T05:02:31.210Z,8.45
2022-11-10T05:05:19.076Z,9.27
2022-11-10T05:08:05.540Z,9.02
2022-11-10T05:10:50.976Z,10.38
2022-11-10T05:13:36.528Z,9.40
2022-11-10T05:16:22.458Z,8.10
2022-11-10T05:19:08.584Z,11.23
2022-11-10T05:21:54.044Z,10.38
2022-11-10T05:24:39.950Z,9.32
2022-11-10T05:27:25.995Z,9.32
2022-11-10T05:30:11.676Z,9.07
2022-11-10T05:32:57.559Z,8.88
2022-11-10T05:35:43.010Z,8.48
2022-11-10T05:38:28.787Z,8.88
2022-11-10T05:41:14.516Z,8.98
2022-11-10T05:44:00.125Z,8.48
2022-11-10T05:46:45.814Z,8.95
2022-11-10T05:49:31.376Z,7.85
2022-11-10T05:52:17.256Z,8.27
2022-11-10T05:55:02.612Z,8.65
2022-11-10T05:57:49.759Z,9.25
2022-11-10T06:00:36.185Z,8.27
2022-11-10T06:03:22.456Z,7.28
2022-11-10T06:06:08.682Z,9.05
2022-11-10T06:08:56.568Z,6.88
2022-11-10T06:11:42.407Z,8.10
2022-11-10T06:14:27.877Z,7.15
2022-11-10T06:17:14.429Z,8.35
2022-11-10T06:19:59.778Z,8.48
2022-11-10T06:23:04.421Z,8.27
2022-11-10T06:25:52.433Z,7.85
2022-11-10T06:28:38.197Z,7.35
2022-11-10T06:31:23.911Z,8.40
2022-11-10T06:34:09.723Z,8.18
2022-11-10T06:36:55.275Z,7.45
2022-11-10T06:39:40.776Z,8.23
2022-11-10T06:42:26.716Z,7.75
2022-11-10T06:45:12.207Z,7.35
2022-11-10T06:48:11.358Z,8.60
2022-11-10T06:51:00.608Z,8.68
2022-11-10T06:53:46.125Z,7.82
2022-11-10T06:56:31.856Z,6.53
2022-11-10T06:59:17.544Z,7.78
2022-11-10T07:02:03.003Z,7.20
2022-11-10T07:04:50.870Z,8.02
2022-11-10T07:07:36.379Z,7.82
2022-11-10T07:10:23.387Z,8.43
2022-11-10T07:13:10.776Z,9.07
2022-11-10T07:15:56.557Z,7.97
2022-11-10T07:18:42.391Z,8.60
2022-11-10T07:21:27.853Z,8.63
2022-11-10T07:24:13.608Z,7.65
2022-11-10T07:26:59.518Z,8.27
2022-11-10T07:29:45.319Z,8.20
2022-11-10T07:32:31.155Z,7.90
2022-11-10T07:35:16.644Z,8.15
2022-11-10T07:38:09.946Z,8.07
2022-11-10T07:40:56.155Z,9.23
2022-11-10T07:43:41.550Z,9.52
2022-11-10T07:46:27.290Z,7.50
2022-11-10T07:49:12.893Z,9.02
2022-11-10T07:51:58.496Z,9.10
2022-11-10T07:54:44.071Z,8.57
2022-11-10T07:57:29.675Z,8.30
2022-11-10T08:00:16.776Z,8.70
2022-11-10T08:03:12.543Z,8.73
2022-11-10T08:05:57.856Z,8.52
2022-11-10T08:08:43.618Z,10.18
2022-11-10T08:11:28.983Z,8.73
2022-11-10T08:14:14.426Z,8.90
2022-11-10T08:17:00.092Z,9.38
2022-11-10T08:19:45.411Z,10.00
2022-11-10T08:22:31.015Z,9.95
2022-11-10T08:25:16.775Z,9.35
2022-11-10T08:28:07.413Z,8.73
2022-11-10T08:30:53.654Z,8.80
2022-11-10T08:33:39.309Z,9.40
2022-11-10T08:36:25.056Z,7.85
2022-11-10T08:39:10.757Z,8.68
2022-11-10T08:41:56.451Z,7.75
2022-11-10T08:44:42.090Z,9.30
2022-11-10T08:47:27.706Z,9.00
2022-11-10T08:50:12.946Z,8.48
2022-11-10T08:53:02.814Z,9.80
2022-11-10T08:55:48.756Z,10.90
2022-11-10T08:58:36.892Z,9.65
2022-11-10T09:01:28.343Z,10.82
2022-11-10T09:04:15.967Z,9.82
2022-11-10T09:07:01.736Z,9.13
2022-11-10T09:10:05.900Z,10.60
2022-11-10T09:12:52.340Z,9.13
2022-11-10T09:15:38.748Z,10.23
2022-11-10T09:18:24.299Z,10.13
2022-11-10T09:21:12.089Z,10.82
2022-11-10T09:23:57.818Z,9.88
2022-11-10T09:26:45.438Z,10.35
2022-11-10T09:29:31.029Z,9.88
2022-11-10T09:32:16.995Z,10.55
2022-11-10T09:35:03.757Z,10.80
2022-11-10T09:37:49.340Z,10.52
2022-11-10T09:40:50.798Z,11.32
2022-11-10T09:43:42.873Z,11.50
2022-11-10T09:46:35.364Z,11.20
2022-11-10T09:49:29.789Z,11.32
2022-11-10T09:52:18.552Z,10.82
2022-11-10T09:55:23.530Z,10.18
2022-11-10T09:58:12.898Z,11.27
2022-11-10T10:01:24.616Z,9.82
2022-11-10T10:04:13.248Z,11.35
2022-11-10T10:07:11.436Z,11.43
2022-11-10T10:10:23.377Z,10.07
2022-11-10T10:13:22.354Z,11.43
2022-11-10T10:16:26.947Z,10.80
2022-11-10T10:22:39.241Z,9.20
2022-11-10T10:25:27.934Z,10.15
2022-11-10T10:28:26.054Z,9.90
2022-11-10T10:31:18.998Z,10.38
2022-11-10T10:34:05.270Z,10.98
2022-11-10T10:36:50.794Z,11.35
2022-11-10T10:39:47.178Z,10.45
2022-11-10T10:42:35.870Z,11.70
2022-11-10T10:45:27.513Z,11.25
2022-11-10T10:48:30.310Z,11.20
2022-11-10T10:51:30.253Z,10.27
2022-11-10T10:54:33.164Z,11.77
2022-11-10T10:57:28.396Z,11.98
2022-11-10T11:00:22.053Z,11.95
2022-11-10T11:03:28.762Z,11.52
2022-11-10T11:06:14.634Z,10.85
2022-11-10T11:09:08.982Z,11.18
2022-11-10T11:14:48.018Z,9.52
2022-11-10T11:17:35.751Z,10.65
2022-11-10T11:20:33.232Z,11.50
2022-11-10T11:23:57.418Z,11.90
2022-11-10T11:27:00.746Z,10.75
2022-11-10T11:30:03.550Z,12.13
2022-11-10T11:32:49.491Z,11.40
2022-11-10T11:36:03.306Z,10.85
2022-11-10T11:39:03.749Z,11.90
2022-11-10T11:41:49.253Z,11.13
2022-11-10T11:44:58.508Z,10.55
2022-11-10T11:48:04.787Z,11.93
2022-11-10T11:51:18.694Z,10.75
2022-11-10T11:54:28.310Z,11.52
2022-11-10T11:57:16.876Z,10.80
2022-11-10T12:00:12.846Z,11.32
2022-11-10T12:03:17.430Z,12.27
2022-11-10T12:06:08.944Z,10.35
2022-11-10T12:09:20.017Z,11.13
2022-11-10T12:12:20.398Z,10.15
2022-11-10T12:15:24.393Z,11.38
2022-11-10T12:18:19.014Z,11.07
2022-11-10T12:21:20.722Z,11.93
2022-11-10T12:24:44.098Z,11.30
2022-11-10T12:27:44.695Z,11.45
2022-11-10T12:30:31.206Z,12.27
2022-11-10T12:33:28.850Z,12.02
2022-11-10T12:36:17.249Z,12.10
2022-11-10T12:39:21.180Z,12.13
2022-11-10T12:45:02.642Z,10.80
2022-11-10T12:47:48.964Z,12.10
2022-11-10T12:50:49.405Z,13.13
2022-11-10T12:53:40.942Z,12.30
2022-11-10T12:56:34.180Z,11.45
2022-11-10T12:59:19.731Z,12.20
2022-11-10T13:02:24.051Z,14.02
2022-11-10T13:05:35.866Z,12.20
2022-11-10T13:08:33.970Z,13.30
2022-11-10T13:11:33.068Z,11.38
2022-11-10T13:14:33.655Z,13.50
2022-11-10T13:17:28.394Z,11.55
2022-11-10T13:20:41.817Z,13.68
2022-11-10T13:23:31.267Z,12.80
2022-11-10T13:26:44.611Z,13.43
2022-11-10T13:29:43.029Z,12.98
2022-11-10T13:32:35.755Z,12.90
2022-11-10T13:35:31.128Z,12.77
2022-11-10T13:38:41.430Z,11.00
2022-11-10T13:41:27.825Z,12.63
2022-11-10T13:44:32.483Z,12.70
2022-11-10T13:50:48.863Z,9.82
2022-11-10T13:54:04.865Z,11.50
2022-11-10T13:57:15.410Z,13.55
2022-11-10T14:00:02.654Z,12.02
2022-11-10T14:02:49.994Z,12.65
2022-11-10T14:05:38.659Z,12.43
2022-11-10T14:08:29.961Z,13.38
2022-11-10T14:11:22.974Z,13.73
2022-11-10T14:14:33.880Z,13.00
2022-11-10T14:17:48.264Z,14.80
2022-11-10T14:20:44.025Z,14.15
2022-11-10T14:24:20.417Z,15.05
2022-11-10T14:27:08.880Z,12.68
2022-11-10T14:30:25.449Z,13.68
2022-11-10T14:33:14.194Z,14.27
2022-11-10T14:36:05.484Z,12.70
2022-11-10T14:38:52.694Z,13.88
2022-11-10T14:41:47.529Z,13.02
2022-11-10T14:44:35.478Z,13.85
2022-11-10T14:47:24.393Z,14.07
2022-11-10T14:50:22.438Z,14.13
2022-11-10T14:53:35.553Z,14.52
2022-11-10T14:56:30.119Z,14.30
2022-11-10T14:59:17.161Z,13.82
2022-11-10T15:02:04.198Z,14.18
2022-11-10T15:04:51.772Z,14.98
2022-11-10T15:07:37.866Z,13.90
2022-11-10T15:10:42.026Z,13.57
2022-11-10T15:13:34.599Z,13.82
2022-11-10T15:16:22.451Z,14.50
2022-11-10T15:19:32.199Z,15.18
2022-11-10T15:22:21.944Z,13.13
2022-11-10T15:25:16.955Z,15.63
2022-11-10T15:28:16.177Z,14.18
2022-11-10T15:31:05.755Z,15.38
2022-11-10T15:33:54.678Z,14.93
2022-11-10T15:36:40.227Z,13.57
2022-11-10T15:39:27.481Z,16.38
2022-11-10T15:42:22.347Z,15.27
2022-11-10T15:45:11.395Z,14.15
2022-11-10T15:48:02.910Z,14.77
2022-11-10T15:50:55.244Z,15.77
2022-11-10T15:53:50.621Z,16.20
2022-11-10T15:56:36.709Z,15.38
2022-11-10T15:59:22.567Z,15.57
2022-11-10T16:02:25.987Z,14.57
2022-11-10T16:05:12.873Z,14.73
2022-11-10T16:08:00.288Z,15.43
2022-11-10T16:10:56.278Z,15.77
2022-11-10T16:13:42.680Z,16.25
2022-11-10T16:16:29.601Z,14.35
2022-11-10T16:19:15.810Z,14.40
2022-11-10T16:22:01.914Z,15.27
2022-11-10T16:24:47.830Z,15.20
2022-11-10T16:27:40.441Z,16.52
2022-11-10T16:30:26.152Z,14.35
2022-11-10T16:33:16.831Z,16.48
2022-11-10T16:36:02.521Z,15.88
2022-11-10T16:38:51.424Z,12.75
2022-11-10T16:41:37.372Z,13.82
2022-11-10T16:44:25.212Z,14.75
2022-11-10T16:47:18.654Z,13.55
2022-11-10T16:50:07.368Z,14.27
2022-11-10T16:52:53.531Z,14.45
2022-11-10T16:55:39.311Z,14.13
2022-11-10T16:58:27.551Z,14.48
2022-11-10T17:01:24.640Z,12.90
2022-11-10T17:04:16.273Z,13.25
2022-11-10T17:07:11.929Z,14.88
2022-11-10T17:09:59.518Z,13.90
2022-11-10T17:12:48.105Z,13.73
2022-11-10T17:15:35.791Z,14.13
2022-11-10T17:18:24.668Z,14.88
2022-11-10T17:21:13.151Z,13.85
2022-11-10T17:24:00.395Z,14.13
2022-11-10T17:26:48.721Z,14.38
2022-11-10T17:29:42.247Z,14.95
2022-11-10T17:33:04.339Z,11.95
2022-11-10T17:36:01.088Z,13.63
2022-11-10T17:38:48.305Z,12.57
2022-11-10T17:41:36.464Z,14.32
2022-11-10T17:44:25.426Z,11.82
2022-11-10T17:47:13.983Z,13.10
2022-11-10T17:50:06.615Z,12.93
2022-11-10T17:52:54.086Z,12.70
2022-11-10T17:55:40.120Z,12.25
2022-11-10T17:58:25.817Z,12.48
2022-11-10T18:01:22.854Z,12.73
2022-11-10T18:04:15.251Z,12.13
2022-11-10T18:07:03.217Z,12.35
2022-11-10T18:09:54.158Z,11.82
2022-11-10T18:12:43.071Z,12.60
2022-11-10T18:15:28.758Z,14.00
2022-11-10T18:18:16.193Z,12.40
2022-11-10T18:21:02.443Z,12.63
2022-11-10T18:23:51.008Z,12.23
2022-11-10T18:26:37.197Z,13.55
2022-11-10T18:29:23.226Z,11.45
2022-11-10T18:32:16.517Z,11.98
2022-11-10T18:35:04.766Z,12.83
2022-11-10T18:37:50.560Z,12.43
2022-11-10T18:40:42.642Z,13.05
2022-11-10T18:43:32.554Z,12.85
2022-11-10T18:46:20.615Z,13.77
2022-11-10T18:49:07.636Z,13.05
2022-11-10T18:51:53.311Z,12.60
2022-11-10T18:54:39.695Z,13.00
2022-11-10T18:57:25.798Z,13.80
2022-11-10T19:00:12.931Z,13.27
2022-11-10T19:02:58.630Z,14.00
2022-11-10T19:05:44.358Z,15.40
2022-11-10T19:08:30.249Z,13.05
2022-11-10T19:11:18.223Z,13.07
2022-11-10T19:14:06.463Z,14.27
2022-11-10T19:16:52.280Z,14.68
2022-11-10T19:19:37.929Z,15.68
2022-11-10T19:22:24.372Z,14.50
2022-11-10T19:25:12.601Z,16.13
2022-11-10T19:27:59.026Z,15.20
2022-11-10T19:30:44.400Z,14.68
2022-11-10T19:33:38.663Z,14.77
2022-11-10T19:36:28.968Z,15.63
2022-11-10T19:39:17.053Z,14.73
2022-11-10T19:42:02.559Z,16.58
2022-11-10T19:44:50.700Z,16.90
2022-11-10T19:47:36.119Z,17.92
2022-11-10T19:50:21.937Z,17.40
2022-11-10T19:53:07.255Z,17.75
2022-11-10T19:55:53.526Z,15.57
2022-11-10T19:58:43.544Z,15.48
2022-11-10T20:01:29.542Z,17.02
2022-11-10T20:04:16.611Z,16.10
2022-11-10T20:07:20.580Z,14.50
2022-11-10T20:10:07.144Z,15.82
2022-11-10T20:12:53.155Z,16.98
2022-11-10T20:15:41.059Z,17.67
2022-11-10T20:18:26.578Z,15.18
2022-11-10T20:21:18.033Z,17.67
2022-11-10T20:24:04.266Z,16.35
2022-11-10T20:26:52.316Z,15.23
2022-11-10T20:29:37.752Z,17.65
2022-11-10T20:32:23.646Z,15.77
2022-11-10T20:35:09.601Z,15.05
2022-11-10T20:37:57.795Z,17.67
2022-11-10T20:40:45.046Z,15.32
2022-11-10T20:43:37.329Z,14.80
2022-11-10T20:49:29.344Z,17.85
2022-11-10T20:52:15.252Z,17.10
2022-11-10T20:55:05.654Z,17.02
2022-11-10T20:57:52.267Z,16.98
2022-11-10T21:00:37.975Z,17.70
2022-11-10T21:03:23.989Z,16.90
2022-11-10T21:06:10.294Z,16.25
2022-11-10T21:08:59.100Z,16.42
2022-11-10T21:12:02.950Z,16.13
2022-11-10T21:14:48.712Z,15.60
2022-11-10T21:17:34.613Z,16.45
2022-11-10T21:20:20.267Z,16.80
2022-11-10T21:23:06.036Z,17.85
2022-11-10T21:26:02.295Z,15.40
2022-11-10T21:28:48.003Z,15.57
2022-11-10T21:31:34.088Z,14.95
2022-11-10T21:34:23.159Z,16.50
2022-11-10T21:37:11.326Z,15.07
2022-11-10T21:39:59.851Z,15.50
2022-11-10T21:42:48.240Z,15.43
2022-11-10T21:45:36.352Z,14.65
2022-11-10T21:48:21.994Z,14.68
2022-11-10T21:51:09.182Z,16.15
2022-11-10T21:53:54.379Z,14.90
2022-11-10T21:56:40.092Z,14.63
2022-11-10T21:59:25.576Z,15.48
2022-11-10T22:02:11.351Z,17.08
2022-11-10T22:04:59.414Z,16.60
2022-11-10T22:07:44.894Z,16.83
2022-11-10T22:10:51.101Z,17.10
2022-11-10T22:13:56.174Z,15.95
2022-11-10T22:17:09.925Z,16.27
2022-11-10T22:19:55.326Z,14.73
2022-11-10T22:22:40.797Z,17.50
2022-11-10T22:25:28.634Z,17.05
2022-11-10T22:28:14.276Z,14.45
2022-11-10T22:31:05.371Z,15.30
2022-11-10T22:33:51.648Z,16.55
2022-11-10T22:36:37.196Z,15.43
2022-11-10T22:39:45.660Z,14.82
2022-11-10T22:42:49.726Z,15.18
2022-11-10T22:45:35.647Z,14.90
2022-11-10T22:48:28.455Z,16.27
2022-11-10T22:51:14.175Z,14.65
2022-11-10T22:54:00.498Z,15.30
2022-11-10T22:56:51.063Z,13.73
2022-11-10T22:59:36.867Z,13.00
2022-11-10T23:02:22.273Z,14.32
2022-11-10T23:05:08.015Z,15.30
2022-11-10T23:07:56.555Z,15.68
2022-11-10T23:10:42.233Z,15.40
2022-11-10T23:13:28.852Z,17.02
2022-11-10T23:16:17.880Z,17.27
2022-11-10T23:19:03.493Z,16.98
2022-11-10T23:21:52.031Z,14.80
2022-11-10T23:24:37.583Z,16.13
2022-11-10T23:27:25.685Z,16.58
2022-11-10T23:30:14.386Z,16.15
2022-11-10T23:33:00.053Z,17.13
2022-11-10T23:35:46.792Z,16.25
2022-11-10T23:38:34.840Z,15.43
2022-11-10T23:41:26.269Z,15.85
2022-11-10T23:44:12.079Z,16.52
2022-11-10T23:46:57.807Z,15.52
2022-11-10T23:49:43.459Z,17.60
2022-11-10T23:52:30.069Z,16.08
2022-11-10T23:55:15.819Z,17.45
2022-11-10T23:58:02.002Z,16.23
